sensor_id;sensor_type;location;lat;lon;timestamp;temperature;humidity
17405;DHT22;8820;54.604;18.226;2022-12-18T00:01:26;-3.70;97.50
17405;DHT22;8820;54.604;18.226;2022-12-18T00:03:56;-3.70;97.30
17405;DHT22;8820;54.604;18.226;2022-12-18T00:06:26;-3.80;96.50
17405;DHT22;8820;54.604;18.226;2022-12-18T00:08:57;-3.80;96.80
17405;DHT22;8820;54.604;18.226;2022-12-18T00:11:29;-3.90;97.10
17405;DHT22;8820;54.604;18.226;2022-12-18T00:13:59;-3.90;97.80
17405;DHT22;8820;54.604;18.226;2022-12-18T00:16:28;-3.90;99.00
17405;DHT22;8820;54.604;18.226;2022-12-18T00:19:00;-3.90;99.40
17405;DHT22;8820;54.604;18.226;2022-12-18T00:21:30;-3.80;99.20
17405;DHT22;8820;54.604;18.226;2022-12-18T00:23:59;-3.80;98.90
17405;DHT22;8820;54.604;18.226;2022-12-18T00:26:32;-3.80;98.20
17405;DHT22;8820;54.604;18.226;2022-12-18T00:29:03;-3.80;97.70
17405;DHT22;8820;54.604;18.226;2022-12-18T00:31:32;-3.70;97.30
17405;DHT22;8820;54.604;18.226;2022-12-18T00:34:02;-3.70;97.70
17405;DHT22;8820;54.604;18.226;2022-12-18T00:36:32;-3.70;98.10
17405;DHT22;8820;54.604;18.226;2022-12-18T00:39:03;-3.70;97.60
17405;DHT22;8820;54.604;18.226;2022-12-18T00:41:33;-3.70;97.30
17405;DHT22;8820;54.604;18.226;2022-12-18T00:44:19;-3.70;97.80
17405;DHT22;8820;54.604;18.226;2022-12-18T00:46:48;-3.70;97.70
17405;DHT22;8820;54.604;18.226;2022-12-18T00:49:18;-3.80;97.70
17405;DHT22;8820;54.604;18.226;2022-12-18T00:51:46;-4.00;97.40
17405;DHT22;8820;54.604;18.226;2022-12-18T00:54:16;-4.10;99.50
17405;DHT22;8820;54.604;18.226;2022-12-18T00:56:46;-4.00;99.90
17405;DHT22;8820;54.604;18.226;2022-12-18T00:59:16;-3.90;99.40
17405;DHT22;8820;54.604;18.226;2022-12-18T01:01:45;-3.80;98.60
17405;DHT22;8820;54.604;18.226;2022-12-18T01:04:14;-3.80;98.50
17405;DHT22;8820;54.604;18.226;2022-12-18T01:06:45;-3.90;98.80
17405;DHT22;8820;54.604;18.226;2022-12-18T01:09:13;-3.90;99.10
17405;DHT22;8820;54.604;18.226;2022-12-18T01:11:42;-3.80;99.90
17405;DHT22;8820;54.604;18.226;2022-12-18T01:14:12;-3.80;99.80
17405;DHT22;8820;54.604;18.226;2022-12-18T01:16:40;-3.80;99.70
17405;DHT22;8820;54.604;18.226;2022-12-18T01:19:09;-3.80;99.20
17405;DHT22;8820;54.604;18.226;2022-12-18T01:21:38;-4.00;98.60
17405;DHT22;8820;54.604;18.226;2022-12-18T01:24:06;-4.10;99.20
17405;DHT22;8820;54.604;18.226;2022-12-18T01:26:35;-4.00;99.70
17405;DHT22;8820;54.604;18.226;2022-12-18T01:29:03;-3.90;99.70
17405;DHT22;8820;54.604;18.226;2022-12-18T01:31:34;-3.90;98.40
17405;DHT22;8820;54.604;18.226;2022-12-18T01:34:03;-4.00;99.30
17405;DHT22;8820;54.604;18.226;2022-12-18T01:36:36;-3.90;99.00
17405;DHT22;8820;54.604;18.226;2022-12-18T01:39:09;-3.90;99.50
17405;DHT22;8820;54.604;18.226;2022-12-18T01:41:41;-3.90;98.50
17405;DHT22;8820;54.604;18.226;2022-12-18T01:44:58;-3.90;98.10
17405;DHT22;8820;54.604;18.226;2022-12-18T01:47:32;-3.90;97.90
17405;DHT22;8820;54.604;18.226;2022-12-18T01:50:05;-3.90;98.80
17405;DHT22;8820;54.604;18.226;2022-12-18T01:52:35;-3.90;98.90
17405;DHT22;8820;54.604;18.226;2022-12-18T01:55:06;-3.90;98.90
17405;DHT22;8820;54.604;18.226;2022-12-18T01:57:36;-3.90;98.40
17405;DHT22;8820;54.604;18.226;2022-12-18T02:00:07;-3.90;98.70
17405;DHT22;8820;54.604;18.226;2022-12-18T02:02:43;-4.00;98.60
17405;DHT22;8820;54.604;18.226;2022-12-18T02:05:15;-4.10;99.70
17405;DHT22;8820;54.604;18.226;2022-12-18T02:07:51;-4.10;99.90
17405;DHT22;8820;54.604;18.226;2022-12-18T02:10:27;-4.00;99.90
17405;DHT22;8820;54.604;18.226;2022-12-18T02:13:06;-4.00;99.90
17405;DHT22;8820;54.604;18.226;2022-12-18T02:15:43;-4.00;99.90
17405;DHT22;8820;54.604;18.226;2022-12-18T02:18:18;-3.90;99.80
17405;DHT22;8820;54.604;18.226;2022-12-18T02:20:52;-3.90;98.80
17405;DHT22;8820;54.604;18.226;2022-12-18T02:23:35;-3.90;99.20
17405;DHT22;8820;54.604;18.226;2022-12-18T02:26:18;-3.90;98.80
17405;DHT22;8820;54.604;18.226;2022-12-18T02:28:53;-3.80;98.30
17405;DHT22;8820;54.604;18.226;2022-12-18T02:31:26;-3.90;99.10
17405;DHT22;8820;54.604;18.226;2022-12-18T02:33:57;-4.00;98.50
17405;DHT22;8820;54.604;18.226;2022-12-18T02:36:32;-4.00;99.90
17405;DHT22;8820;54.604;18.226;2022-12-18T02:39:02;-3.90;99.90
17405;DHT22;8820;54.604;18.226;2022-12-18T02:41:34;-3.90;99.90
17405;DHT22;8820;54.604;18.226;2022-12-18T02:44:08;-3.90;99.90
17405;DHT22;8820;54.604;18.226;2022-12-18T02:46:41;-3.80;99.60
17405;DHT22;8820;54.604;18.226;2022-12-18T02:49:25;-3.80;99.80
17405;DHT22;8820;54.604;18.226;2022-12-18T02:52:04;-3.80;99.90
17405;DHT22;8820;54.604;18.226;2022-12-18T02:54:49;-3.80;99.80
17405;DHT22;8820;54.604;18.226;2022-12-18T02:57:27;-3.80;99.70
17405;DHT22;8820;54.604;18.226;2022-12-18T03:00:02;-3.80;98.70
17405;DHT22;8820;54.604;18.226;2022-12-18T03:02:36;-3.80;99.30
17405;DHT22;8820;54.604;18.226;2022-12-18T03:05:11;-3.80;99.50
17405;DHT22;8820;54.604;18.226;2022-12-18T03:07:46;-3.90;99.90
17405;DHT22;8820;54.604;18.226;2022-12-18T03:10:21;-3.80;99.90
17405;DHT22;8820;54.604;18.226;2022-12-18T03:12:58;-3.80;99.70
17405;DHT22;8820;54.604;18.226;2022-12-18T03:15:31;-3.80;99.40
17405;DHT22;8820;54.604;18.226;2022-12-18T03:18:11;-3.90;99.90
17405;DHT22;8820;54.604;18.226;2022-12-18T03:20:43;-3.90;99.90
17405;DHT22;8820;54.604;18.226;2022-12-18T03:23:17;-3.80;99.90
17405;DHT22;8820;54.604;18.226;2022-12-18T03:25:52;-3.80;99.90
17405;DHT22;8820;54.604;18.226;2022-12-18T03:28:28;-3.80;99.90
17405;DHT22;8820;54.604;18.226;2022-12-18T03:31:05;-3.80;99.90
17405;DHT22;8820;54.604;18.226;2022-12-18T03:33:38;-3.80;99.90
17405;DHT22;8820;54.604;18.226;2022-12-18T03:36:08;-3.70;99.90
17405;DHT22;8820;54.604;18.226;2022-12-18T03:38:37;-3.70;99.90
17405;DHT22;8820;54.604;18.226;2022-12-18T03:41:15;-3.70;99.90
17405;DHT22;8820;54.604;18.226;2022-12-18T03:44:11;-3.70;99.90
17405;DHT22;8820;54.604;18.226;2022-12-18T03:46:49;-3.70;99.90
17405;DHT22;8820;54.604;18.226;2022-12-18T03:49:26;-3.70;99.90
17405;DHT22;8820;54.604;18.226;2022-12-18T03:52:02;-3.70;99.90
17405;DHT22;8820;54.604;18.226;2022-12-18T03:54:33;-3.70;99.90
17405;DHT22;8820;54.604;18.226;2022-12-18T03:57:13;-3.70;99.90
17405;DHT22;8820;54.604;18.226;2022-12-18T03:59:46;-3.70;99.90
17405;DHT22;8820;54.604;18.226;2022-12-18T04:02:18;-3.70;99.90
17405;DHT22;8820;54.604;18.226;2022-12-18T04:04:48;-3.70;99.90
17405;DHT22;8820;54.604;18.226;2022-12-18T04:07:19;-3.70;99.90
17405;DHT22;8820;54.604;18.226;2022-12-18T04:09:49;-3.70;99.90
17405;DHT22;8820;54.604;18.226;2022-12-18T04:12:24;-3.80;99.90
17405;DHT22;8820;54.604;18.226;2022-12-18T04:14:55;-3.70;99.90
17405;DHT22;8820;54.604;18.226;2022-12-18T04:17:23;-3.70;99.90
17405;DHT22;8820;54.604;18.226;2022-12-18T04:19:52;-3.70;99.90
17405;DHT22;8820;54.604;18.226;2022-12-18T04:22:23;-3.60;99.90
17405;DHT22;8820;54.604;18.226;2022-12-18T04:24:57;-3.60;99.90
17405;DHT22;8820;54.604;18.226;2022-12-18T04:27:32;-3.70;99.90
17405;DHT22;8820;54.604;18.226;2022-12-18T04:30:04;-3.60;99.90
17405;DHT22;8820;54.604;18.226;2022-12-18T04:32:33;-3.60;99.90
17405;DHT22;8820;54.604;18.226;2022-12-18T04:35:03;-3.60;99.70
17405;DHT22;8820;54.604;18.226;2022-12-18T04:37:34;-3.70;99.90
17405;DHT22;8820;54.604;18.226;2022-12-18T04:40:03;-3.70;99.90
17405;DHT22;8820;54.604;18.226;2022-12-18T04:42:39;-3.70;99.90
17405;DHT22;8820;54.604;18.226;2022-12-18T04:45:10;-3.80;99.90
17405;DHT22;8820;54.604;18.226;2022-12-18T04:47:38;-3.70;99.90
17405;DHT22;8820;54.604;18.226;2022-12-18T04:50:07;-3.60;99.90
17405;DHT22;8820;54.604;18.226;2022-12-18T04:52:36;-3.70;99.90
17405;DHT22;8820;54.604;18.226;2022-12-18T04:55:05;-3.70;99.90
17405;DHT22;8820;54.604;18.226;2022-12-18T04:57:34;-3.60;99.90
17405;DHT22;8820;54.604;18.226;2022-12-18T05:00:03;-3.70;99.90
17405;DHT22;8820;54.604;18.226;2022-12-18T05:02:34;-3.70;99.90
17405;DHT22;8820;54.604;18.226;2022-12-18T05:05:03;-3.70;99.90
17405;DHT22;8820;54.604;18.226;2022-12-18T05:07:32;-3.70;99.90
17405;DHT22;8820;54.604;18.226;2022-12-18T05:10:00;-3.70;99.90
17405;DHT22;8820;54.604;18.226;2022-12-18T05:12:31;-3.70;99.90
17405;DHT22;8820;54.604;18.226;2022-12-18T05:14:59;-3.70;99.90
17405;DHT22;8820;54.604;18.226;2022-12-18T05:17:30;-3.70;99.90
17405;DHT22;8820;54.604;18.226;2022-12-18T05:20:00;-3.70;99.90
17405;DHT22;8820;54.604;18.226;2022-12-18T05:22:28;-3.70;99.90
17405;DHT22;8820;54.604;18.226;2022-12-18T05:24:57;-3.70;99.90
17405;DHT22;8820;54.604;18.226;2022-12-18T05:27:25;-3.60;99.90
17405;DHT22;8820;54.604;18.226;2022-12-18T05:29:54;-3.60;99.90
17405;DHT22;8820;54.604;18.226;2022-12-18T05:32:22;-3.70;99.90
17405;DHT22;8820;54.604;18.226;2022-12-18T05:34:51;-3.70;99.90
17405;DHT22;8820;54.604;18.226;2022-12-18T05:37:21;-3.70;99.90
17405;DHT22;8820;54.604;18.226;2022-12-18T05:39:49;-3.60;99.90
17405;DHT22;8820;54.604;18.226;2022-12-18T05:42:18;-3.50;99.90
17405;DHT22;8820;54.604;18.226;2022-12-18T05:44:46;-3.50;99.90
17405;DHT22;8820;54.604;18.226;2022-12-18T05:47:17;-3.50;99.90
17405;DHT22;8820;54.604;18.226;2022-12-18T05:49:46;-3.60;99.90
17405;DHT22;8820;54.604;18.226;2022-12-18T05:52:14;-3.50;99.90
17405;DHT22;8820;54.604;18.226;2022-12-18T05:54:44;-3.50;99.90
17405;DHT22;8820;54.604;18.226;2022-12-18T05:57:13;-3.40;99.90
17405;DHT22;8820;54.604;18.226;2022-12-18T05:59:41;-3.40;99.90
17405;DHT22;8820;54.604;18.226;2022-12-18T06:02:10;-3.30;99.90
17405;DHT22;8820;54.604;18.226;2022-12-18T06:04:38;-3.30;99.90
17405;DHT22;8820;54.604;18.226;2022-12-18T06:07:07;-3.30;99.90
17405;DHT22;8820;54.604;18.226;2022-12-18T06:09:35;-3.30;99.90
17405;DHT22;8820;54.604;18.226;2022-12-18T06:12:06;-3.30;99.90
17405;DHT22;8820;54.604;18.226;2022-12-18T06:14:34;-3.30;99.90
17405;DHT22;8820;54.604;18.226;2022-12-18T06:17:03;-3.30;99.90
17405;DHT22;8820;54.604;18.226;2022-12-18T06:19:32;-3.50;99.90
17405;DHT22;8820;54.604;18.226;2022-12-18T06:22:00;-3.50;99.90
17405;DHT22;8820;54.604;18.226;2022-12-18T06:24:29;-3.50;99.90
17405;DHT22;8820;54.604;18.226;2022-12-18T06:26:58;-3.50;99.90
17405;DHT22;8820;54.604;18.226;2022-12-18T06:29:28;-3.50;99.90
17405;DHT22;8820;54.604;18.226;2022-12-18T06:31:56;-3.40;99.90
17405;DHT22;8820;54.604;18.226;2022-12-18T06:34:25;-3.40;99.90
17405;DHT22;8820;54.604;18.226;2022-12-18T06:36:53;-3.30;99.90
17405;DHT22;8820;54.604;18.226;2022-12-18T06:39:22;-3.30;99.90
17405;DHT22;8820;54.604;18.226;2022-12-18T06:41:50;-3.40;99.90
17405;DHT22;8820;54.604;18.226;2022-12-18T06:44:19;-3.40;99.90
17405;DHT22;8820;54.604;18.226;2022-12-18T06:46:49;-3.40;99.90
17405;DHT22;8820;54.604;18.226;2022-12-18T06:49:18;-3.40;99.90
17405;DHT22;8820;54.604;18.226;2022-12-18T06:51:47;-3.40;99.90
17405;DHT22;8820;54.604;18.226;2022-12-18T06:54:16;-3.40;99.90
17405;DHT22;8820;54.604;18.226;2022-12-18T06:56:45;-3.40;99.90
17405;DHT22;8820;54.604;18.226;2022-12-18T06:59:14;-3.40;99.90
17405;DHT22;8820;54.604;18.226;2022-12-18T07:01:42;-3.50;99.90
17405;DHT22;8820;54.604;18.226;2022-12-18T07:04:12;-3.50;99.90
17405;DHT22;8820;54.604;18.226;2022-12-18T07:06:41;-3.60;99.90
17405;DHT22;8820;54.604;18.226;2022-12-18T07:09:09;-3.50;99.90
17405;DHT22;8820;54.604;18.226;2022-12-18T07:11:38;-3.40;99.90
17405;DHT22;8820;54.604;18.226;2022-12-18T07:14:07;-3.50;99.90
17405;DHT22;8820;54.604;18.226;2022-12-18T07:16:35;-3.50;99.90
17405;DHT22;8820;54.604;18.226;2022-12-18T07:19:04;-3.50;99.90
17405;DHT22;8820;54.604;18.226;2022-12-18T07:21:34;-3.40;99.90
17405;DHT22;8820;54.604;18.226;2022-12-18T07:24:02;-3.40;99.90
17405;DHT22;8820;54.604;18.226;2022-12-18T07:26:31;-3.40;99.90
17405;DHT22;8820;54.604;18.226;2022-12-18T07:29:00;-3.40;99.90
17405;DHT22;8820;54.604;18.226;2022-12-18T07:31:31;-3.50;99.90
17405;DHT22;8820;54.604;18.226;2022-12-18T07:34:00;-3.40;99.90
17405;DHT22;8820;54.604;18.226;2022-12-18T07:36:28;-3.50;99.90
17405;DHT22;8820;54.604;18.226;2022-12-18T07:38:58;-3.40;99.90
17405;DHT22;8820;54.604;18.226;2022-12-18T07:41:27;-3.50;99.90
17405;DHT22;8820;54.604;18.226;2022-12-18T07:43:55;-3.40;99.90
17405;DHT22;8820;54.604;18.226;2022-12-18T07:46:24;-3.30;99.90
17405;DHT22;8820;54.604;18.226;2022-12-18T07:48:52;-3.20;99.90
17405;DHT22;8820;54.604;18.226;2022-12-18T07:51:21;-3.20;99.90
17405;DHT22;8820;54.604;18.226;2022-12-18T07:53:49;-3.20;99.90
17405;DHT22;8820;54.604;18.226;2022-12-18T07:56:20;-3.20;99.90
17405;DHT22;8820;54.604;18.226;2022-12-18T07:58:54;-3.10;99.90
17405;DHT22;8820;54.604;18.226;2022-12-18T08:01:23;-3.10;99.90
17405;DHT22;8820;54.604;18.226;2022-12-18T08:03:52;-3.00;99.90
17405;DHT22;8820;54.604;18.226;2022-12-18T08:06:20;-3.00;99.90
17405;DHT22;8820;54.604;18.226;2022-12-18T08:08:51;-3.00;99.90
17405;DHT22;8820;54.604;18.226;2022-12-18T08:11:22;-2.90;99.90
17405;DHT22;8820;54.604;18.226;2022-12-18T08:13:51;-2.80;99.90
17405;DHT22;8820;54.604;18.226;2022-12-18T08:16:20;-2.80;99.90
17405;DHT22;8820;54.604;18.226;2022-12-18T08:18:51;-2.80;99.90
17405;DHT22;8820;54.604;18.226;2022-12-18T08:21:22;-2.70;99.90
17405;DHT22;8820;54.604;18.226;2022-12-18T08:23:52;-2.70;99.90
17405;DHT22;8820;54.604;18.226;2022-12-18T08:26:22;-2.70;99.90
17405;DHT22;8820;54.604;18.226;2022-12-18T08:28:53;-2.70;99.90
17405;DHT22;8820;54.604;18.226;2022-12-18T08:31:22;-2.60;99.90
17405;DHT22;8820;54.604;18.226;2022-12-18T08:33:52;-2.60;99.90
17405;DHT22;8820;54.604;18.226;2022-12-18T08:36:21;-2.60;99.90
17405;DHT22;8820;54.604;18.226;2022-12-18T08:38:50;-2.50;99.90
17405;DHT22;8820;54.604;18.226;2022-12-18T08:41:19;-2.50;99.90
17405;DHT22;8820;54.604;18.226;2022-12-18T08:43:49;-2.50;99.90
17405;DHT22;8820;54.604;18.226;2022-12-18T08:46:37;-2.40;99.90
17405;DHT22;8820;54.604;18.226;2022-12-18T08:49:07;-2.30;99.90
17405;DHT22;8820;54.604;18.226;2022-12-18T08:51:36;-2.30;99.90
17405;DHT22;8820;54.604;18.226;2022-12-18T08:54:05;-2.20;99.90
17405;DHT22;8820;54.604;18.226;2022-12-18T08:56:34;-2.20;99.90
17405;DHT22;8820;54.604;18.226;2022-12-18T08:59:04;-2.20;99.90
17405;DHT22;8820;54.604;18.226;2022-12-18T09:01:33;-2.20;99.90
17405;DHT22;8820;54.604;18.226;2022-12-18T09:04:01;-2.20;99.90
17405;DHT22;8820;54.604;18.226;2022-12-18T09:06:31;-2.10;99.90
17405;DHT22;8820;54.604;18.226;2022-12-18T09:08:59;-2.00;99.90
17405;DHT22;8820;54.604;18.226;2022-12-18T09:11:31;-2.00;99.90
17405;DHT22;8820;54.604;18.226;2022-12-18T09:14:00;-1.90;99.90
17405;DHT22;8820;54.604;18.226;2022-12-18T09:16:31;-1.80;99.90
17405;DHT22;8820;54.604;18.226;2022-12-18T09:19:03;-1.80;99.90
17405;DHT22;8820;54.604;18.226;2022-12-18T09:21:36;-1.80;99.90
17405;DHT22;8820;54.604;18.226;2022-12-18T09:24:12;-1.70;99.90
17405;DHT22;8820;54.604;18.226;2022-12-18T09:26:41;-1.70;99.90
17405;DHT22;8820;54.604;18.226;2022-12-18T09:29:13;-1.70;99.90
17405;DHT22;8820;54.604;18.226;2022-12-18T09:31:42;-1.70;99.90
17405;DHT22;8820;54.604;18.226;2022-12-18T09:34:11;-1.60;99.90
17405;DHT22;8820;54.604;18.226;2022-12-18T09:36:40;-1.60;99.90
17405;DHT22;8820;54.604;18.226;2022-12-18T09:39:08;-1.50;99.90
17405;DHT22;8820;54.604;18.226;2022-12-18T09:41:44;-1.50;99.90
17405;DHT22;8820;54.604;18.226;2022-12-18T09:44:20;-1.50;99.90
17405;DHT22;8820;54.604;18.226;2022-12-18T09:46:54;-1.40;99.90
17405;DHT22;8820;54.604;18.226;2022-12-18T09:49:28;-1.40;99.90
17405;DHT22;8820;54.604;18.226;2022-12-18T09:52:00;-1.40;99.90
17405;DHT22;8820;54.604;18.226;2022-12-18T09:54:33;-1.40;99.90
17405;DHT22;8820;54.604;18.226;2022-12-18T09:57:04;-1.30;99.90
17405;DHT22;8820;54.604;18.226;2022-12-18T09:59:35;-1.20;99.90
17405;DHT22;8820;54.604;18.226;2022-12-18T10:02:15;-1.20;99.90
17405;DHT22;8820;54.604;18.226;2022-12-18T10:04:44;-1.20;99.90
17405;DHT22;8820;54.604;18.226;2022-12-18T10:07:20;-1.10;99.90
17405;DHT22;8820;54.604;18.226;2022-12-18T10:09:58;-1.10;99.90
17405;DHT22;8820;54.604;18.226;2022-12-18T10:12:35;-1.10;99.90
17405;DHT22;8820;54.604;18.226;2022-12-18T10:15:13;-1.00;99.90
17405;DHT22;8820;54.604;18.226;2022-12-18T10:17:46;-1.00;99.90
17405;DHT22;8820;54.604;18.226;2022-12-18T10:20:20;-0.90;99.90
17405;DHT22;8820;54.604;18.226;2022-12-18T10:22:55;-0.80;99.90
17405;DHT22;8820;54.604;18.226;2022-12-18T10:25:28;-0.80;99.90
17405;DHT22;8820;54.604;18.226;2022-12-18T10:28:08;-0.70;99.90
17405;DHT22;8820;54.604;18.226;2022-12-18T10:30:39;-0.70;99.90
17405;DHT22;8820;54.604;18.226;2022-12-18T10:33:11;-0.80;99.80
17405;DHT22;8820;54.604;18.226;2022-12-18T10:35:42;-0.70;99.90
17405;DHT22;8820;54.604;18.226;2022-12-18T10:38:22;-0.70;99.90
17405;DHT22;8820;54.604;18.226;2022-12-18T10:40:53;-0.70;99.90
17405;DHT22;8820;54.604;18.226;2022-12-18T10:43:24;-0.70;99.90
17405;DHT22;8820;54.604;18.226;2022-12-18T10:46:11;-0.70;99.90
17405;DHT22;8820;54.604;18.226;2022-12-18T10:48:52;-0.70;99.90
17405;DHT22;8820;54.604;18.226;2022-12-18T10:51:23;-0.60;99.90
17405;DHT22;8820;54.604;18.226;2022-12-18T10:53:55;-0.60;99.90
17405;DHT22;8820;54.604;18.226;2022-12-18T10:56:26;-0.60;99.40
17405;DHT22;8820;54.604;18.226;2022-12-18T10:58:58;-0.60;99.60
17405;DHT22;8820;54.604;18.226;2022-12-18T11:01:27;-0.50;99.30
17405;DHT22;8820;54.604;18.226;2022-12-18T11:04:04;-0.50;98.70
17405;DHT22;8820;54.604;18.226;2022-12-18T11:06:53;-0.40;98.70
17405;DHT22;8820;54.604;18.226;2022-12-18T11:09:23;-0.40;98.50
17405;DHT22;8820;54.604;18.226;2022-12-18T11:11:54;-0.30;97.70
17405;DHT22;8820;54.604;18.226;2022-12-18T11:14:25;-0.30;95.40
17405;DHT22;8820;54.604;18.226;2022-12-18T11:16:54;-0.30;96.60
17405;DHT22;8820;54.604;18.226;2022-12-18T11:19:52;-0.30;95.60
17405;DHT22;8820;54.604;18.226;2022-12-18T11:22:24;-0.30;95.30
17405;DHT22;8820;54.604;18.226;2022-12-18T11:24:57;-0.20;95.10
17405;DHT22;8820;54.604;18.226;2022-12-18T11:27:52;-0.20;93.80
17405;DHT22;8820;54.604;18.226;2022-12-18T11:30:24;-0.10;95.40
17405;DHT22;8820;54.604;18.226;2022-12-18T11:33:01;0.00;94.60
17405;DHT22;8820;54.604;18.226;2022-12-18T11:35:42;0.00;94.30
17405;DHT22;8820;54.604;18.226;2022-12-18T11:38:21;0.00;93.40
17405;DHT22;8820;54.604;18.226;2022-12-18T11:40:55;0.10;93.00
17405;DHT22;8820;54.604;18.226;2022-12-18T11:43:28;0.10;92.10
17405;DHT22;8820;54.604;18.226;2022-12-18T11:46:01;0.20;92.30
17405;DHT22;8820;54.604;18.226;2022-12-18T11:48:34;0.20;92.10
17405;DHT22;8820;54.604;18.226;2022-12-18T11:51:11;0.20;91.30
17405;DHT22;8820;54.604;18.226;2022-12-18T11:53:41;0.20;90.40
17405;DHT22;8820;54.604;18.226;2022-12-18T11:56:26;0.20;89.00
17405;DHT22;8820;54.604;18.226;2022-12-18T11:59:05;0.10;88.40
17405;DHT22;8820;54.604;18.226;2022-12-18T12:01:48;0.10;89.50
17405;DHT22;8820;54.604;18.226;2022-12-18T12:04:40;0.10;89.60
17405;DHT22;8820;54.604;18.226;2022-12-18T12:07:21;0.10;90.00
17405;DHT22;8820;54.604;18.226;2022-12-18T12:10:00;0.10;89.40
17405;DHT22;8820;54.604;18.226;2022-12-18T12:12:38;0.10;87.60
17405;DHT22;8820;54.604;18.226;2022-12-18T12:15:23;0.20;89.30
17405;DHT22;8820;54.604;18.226;2022-12-18T12:18:02;0.10;85.30
17405;DHT22;8820;54.604;18.226;2022-12-18T12:20:47;0.10;86.60
17405;DHT22;8820;54.604;18.226;2022-12-18T12:23:28;0.20;85.50
17405;DHT22;8820;54.604;18.226;2022-12-18T12:26:04;0.20;85.30
17405;DHT22;8820;54.604;18.226;2022-12-18T12:28:52;0.10;83.50
17405;DHT22;8820;54.604;18.226;2022-12-18T12:31:33;0.10;84.10
17405;DHT22;8820;54.604;18.226;2022-12-18T12:34:12;0.10;84.00
17405;DHT22;8820;54.604;18.226;2022-12-18T12:36:52;0.20;83.90
17405;DHT22;8820;54.604;18.226;2022-12-18T12:39:31;0.20;82.40
17405;DHT22;8820;54.604;18.226;2022-12-18T12:42:02;0.20;82.80
17405;DHT22;8820;54.604;18.226;2022-12-18T12:44:51;0.30;84.20
17405;DHT22;8820;54.604;18.226;2022-12-18T12:47:26;0.30;83.20
17405;DHT22;8820;54.604;18.226;2022-12-18T12:49:56;0.30;81.80
17405;DHT22;8820;54.604;18.226;2022-12-18T12:52:32;0.40;82.00
17405;DHT22;8820;54.604;18.226;2022-12-18T12:55:07;0.30;81.10
17405;DHT22;8820;54.604;18.226;2022-12-18T12:57:45;0.30;81.00
17405;DHT22;8820;54.604;18.226;2022-12-18T13:00:15;0.30;81.00
17405;DHT22;8820;54.604;18.226;2022-12-18T13:02:49;0.30;80.80
17405;DHT22;8820;54.604;18.226;2022-12-18T13:05:23;0.30;80.80
17405;DHT22;8820;54.604;18.226;2022-12-18T13:07:57;0.30;81.20
17405;DHT22;8820;54.604;18.226;2022-12-18T13:10:33;0.30;81.10
17405;DHT22;8820;54.604;18.226;2022-12-18T13:13:05;0.20;80.60
17405;DHT22;8820;54.604;18.226;2022-12-18T13:15:38;0.20;82.20
17405;DHT22;8820;54.604;18.226;2022-12-18T13:18:21;0.20;81.10
17405;DHT22;8820;54.604;18.226;2022-12-18T13:21:04;0.20;81.40
17405;DHT22;8820;54.604;18.226;2022-12-18T13:23:35;0.20;81.50
17405;DHT22;8820;54.604;18.226;2022-12-18T13:26:32;0.20;81.40
17405;DHT22;8820;54.604;18.226;2022-12-18T13:29:02;0.20;81.40
17405;DHT22;8820;54.604;18.226;2022-12-18T13:34:36;0.10;80.90
17405;DHT22;8820;54.604;18.226;2022-12-18T13:37:43;0.10;81.30
17405;DHT22;8820;54.604;18.226;2022-12-18T13:43:39;0.00;81.80
17405;DHT22;8820;54.604;18.226;2022-12-18T13:46:22;0.10;81.90
17405;DHT22;8820;54.604;18.226;2022-12-18T13:49:02;0.10;82.10
17405;DHT22;8820;54.604;18.226;2022-12-18T13:51:35;0.00;82.40
17405;DHT22;8820;54.604;18.226;2022-12-18T13:54:17;-0.10;82.60
17405;DHT22;8820;54.604;18.226;2022-12-18T13:56:48;-0.10;83.10
17405;DHT22;8820;54.604;18.226;2022-12-18T13:59:20;-0.10;83.40
17405;DHT22;8820;54.604;18.226;2022-12-18T14:01:53;-0.20;84.00
17405;DHT22;8820;54.604;18.226;2022-12-18T14:04:26;-0.20;84.80
17405;DHT22;8820;54.604;18.226;2022-12-18T14:07:02;-0.20;85.50
17405;DHT22;8820;54.604;18.226;2022-12-18T14:09:36;-0.30;85.70
17405;DHT22;8820;54.604;18.226;2022-12-18T14:12:06;-0.30;85.80
17405;DHT22;8820;54.604;18.226;2022-12-18T14:14:53;-0.30;85.50
17405;DHT22;8820;54.604;18.226;2022-12-18T14:17:22;-0.20;86.00
17405;DHT22;8820;54.604;18.226;2022-12-18T14:19:51;-0.30;84.80
17405;DHT22;8820;54.604;18.226;2022-12-18T14:22:21;-0.40;84.80
17405;DHT22;8820;54.604;18.226;2022-12-18T14:25:14;-0.30;85.20
17405;DHT22;8820;54.604;18.226;2022-12-18T14:27:45;-0.40;84.00
17405;DHT22;8820;54.604;18.226;2022-12-18T14:30:30;-0.50;84.80
17405;DHT22;8820;54.604;18.226;2022-12-18T14:33:03;-0.50;85.60
17405;DHT22;8820;54.604;18.226;2022-12-18T14:35:33;-0.50;84.80
17405;DHT22;8820;54.604;18.226;2022-12-18T14:38:22;-0.40;84.00
17405;DHT22;8820;54.604;18.226;2022-12-18T14:40:58;-0.50;83.50
17405;DHT22;8820;54.604;18.226;2022-12-18T14:43:28;-0.60;83.80
17405;DHT22;8820;54.604;18.226;2022-12-18T14:45:59;-0.60;84.10
17405;DHT22;8820;54.604;18.226;2022-12-18T14:48:37;-0.60;83.20
17405;DHT22;8820;54.604;18.226;2022-12-18T14:51:15;-0.60;83.80
17405;DHT22;8820;54.604;18.226;2022-12-18T14:53:47;-0.70;83.10
17405;DHT22;8820;54.604;18.226;2022-12-18T14:56:22;-0.80;83.90
17405;DHT22;8820;54.604;18.226;2022-12-18T14:58:54;-0.80;83.90
17405;DHT22;8820;54.604;18.226;2022-12-18T15:01:27;-0.80;84.40
17405;DHT22;8820;54.604;18.226;2022-12-18T15:03:57;-0.90;83.90
17405;DHT22;8820;54.604;18.226;2022-12-18T15:06:29;-0.80;84.20
17405;DHT22;8820;54.604;18.226;2022-12-18T15:09:00;-0.70;84.10
17405;DHT22;8820;54.604;18.226;2022-12-18T15:11:33;-0.80;82.30
17405;DHT22;8820;54.604;18.226;2022-12-18T15:14:33;-0.90;82.50
17405;DHT22;8820;54.604;18.226;2022-12-18T15:17:16;-0.90;81.90
17405;DHT22;8820;54.604;18.226;2022-12-18T15:19:49;-1.00;82.90
17405;DHT22;8820;54.604;18.226;2022-12-18T15:22:23;-1.00;82.60
17405;DHT22;8820;54.604;18.226;2022-12-18T15:24:53;-1.10;83.00
17405;DHT22;8820;54.604;18.226;2022-12-18T15:27:25;-1.10;83.80
17405;DHT22;8820;54.604;18.226;2022-12-18T15:30:02;-1.20;83.80
17405;DHT22;8820;54.604;18.226;2022-12-18T15:32:45;-1.20;83.80
17405;DHT22;8820;54.604;18.226;2022-12-18T15:35:20;-1.20;83.80
17405;DHT22;8820;54.604;18.226;2022-12-18T15:37:52;-1.20;83.80
17405;DHT22;8820;54.604;18.226;2022-12-18T15:40:22;-1.20;84.00
17405;DHT22;8820;54.604;18.226;2022-12-18T15:42:53;-1.20;83.70
17405;DHT22;8820;54.604;18.226;2022-12-18T15:45:40;-1.20;83.20
17405;DHT22;8820;54.604;18.226;2022-12-18T15:48:20;-1.20;82.80
17405;DHT22;8820;54.604;18.226;2022-12-18T15:50:50;-1.20;83.20
17405;DHT22;8820;54.604;18.226;2022-12-18T15:53:20;-1.20;82.50
17405;DHT22;8820;54.604;18.226;2022-12-18T15:55:49;-1.20;82.00
17405;DHT22;8820;54.604;18.226;2022-12-18T15:58:35;-1.20;81.70
17405;DHT22;8820;54.604;18.226;2022-12-18T16:01:04;-1.40;81.80
17405;DHT22;8820;54.604;18.226;2022-12-18T16:03:34;-1.40;82.50
17405;DHT22;8820;54.604;18.226;2022-12-18T16:06:03;-1.50;83.60
17405;DHT22;8820;54.604;18.226;2022-12-18T16:08:31;-1.50;82.80
17405;DHT22;8820;54.604;18.226;2022-12-18T16:11:00;-1.50;82.90
17405;DHT22;8820;54.604;18.226;2022-12-18T16:13:29;-1.50;83.20
17405;DHT22;8820;54.604;18.226;2022-12-18T16:15:57;-1.60;83.60